Terminal Aerodrome Forecast
Issued by NWS North Platte, NE

Home | Current Version | Previous Version | Graphics & Text | Print | Product List | Glossary On
Versions: 1 2 3 4 5 6 7 8 9 10 11 12 13 14 15 16 17 18 19 20 21 22 23 24 25 26 27 28 29
000
FTUS43 KLBF 262336
TAFVTN
TAF
KVTN 262336Z 2700/2724 17012G16KT P6SM VCTS BKN060CB BKN120
      TEMPO 2702/2706 VRB25G40KT 4SM TSRA BKN040CB OVC120
     FM270600 15012KT P6SM -SHRA BKN050 OVC150
     FM270800 36010KT P6SM BKN150
     FM271000 36008KT P6SM BKN015 OVC150
     FM271500 36008KT P6SM SCT015 BKN150
     FM271800 01010KT P6SM SCT060 BKN150=

USA.gov is the U.S. government's official web portal to all federal, state and local government web resources and services.